sensor_id;sensor_type;location;lat;lon;timestamp;temperature;humidity
41953;DHT22;63613;28.200;112.870;2023-09-12T00:01:23;30.70;52.50
41953;DHT22;63613;28.200;112.870;2023-09-12T00:03:50;30.80;52.50
41953;DHT22;63613;28.200;112.870;2023-09-12T00:06:17;30.70;52.60
41953;DHT22;63613;28.200;112.870;2023-09-12T00:09:04;30.80;52.50
41953;DHT22;63613;28.200;112.870;2023-09-12T00:11:34;30.80;52.70
41953;DHT22;63613;28.200;112.870;2023-09-12T00:14:01;30.80;52.60
41953;DHT22;63613;28.200;112.870;2023-09-12T00:16:29;30.80;52.80
41953;DHT22;63613;28.200;112.870;2023-09-12T00:18:55;30.70;52.80
41953;DHT22;63613;28.200;112.870;2023-09-12T00:21:22;30.80;52.80
41953;DHT22;63613;28.200;112.870;2023-09-12T00:23:49;30.80;52.90
41953;DHT22;63613;28.200;112.870;2023-09-12T00:26:16;30.80;52.70
41953;DHT22;63613;28.200;112.870;2023-09-12T00:28:42;30.70;52.70
41953;DHT22;63613;28.200;112.870;2023-09-12T00:31:29;30.70;52.40
41953;DHT22;63613;28.200;112.870;2023-09-12T00:33:56;30.80;52.30
41953;DHT22;63613;28.200;112.870;2023-09-12T00:36:22;30.80;52.20
41953;DHT22;63613;28.200;112.870;2023-09-12T00:38:49;30.80;52.40
41953;DHT22;63613;28.200;112.870;2023-09-12T00:41:16;30.80;52.40
41953;DHT22;63613;28.200;112.870;2023-09-12T00:43:43;30.70;52.50
41953;DHT22;63613;28.200;112.870;2023-09-12T00:46:09;30.70;52.50
41953;DHT22;63613;28.200;112.870;2023-09-12T00:48:38;30.70;52.70
41953;DHT22;63613;28.200;112.870;2023-09-12T00:51:05;30.80;52.70
41953;DHT22;63613;28.200;112.870;2023-09-12T00:53:32;30.70;53.00
41953;DHT22;63613;28.200;112.870;2023-09-12T00:55:59;30.70;52.90
41953;DHT22;63613;28.200;112.870;2023-09-12T00:58:27;30.70;53.10
41953;DHT22;63613;28.200;112.870;2023-09-12T01:00:54;30.70;53.10
41953;DHT22;63613;28.200;112.870;2023-09-12T01:03:22;30.70;53.10
41953;DHT22;63613;28.200;112.870;2023-09-12T01:05:49;30.70;53.20
41953;DHT22;63613;28.200;112.870;2023-09-12T01:08:15;30.70;53.20
41953;DHT22;63613;28.200;112.870;2023-09-12T01:10:43;30.70;53.30
41953;DHT22;63613;28.200;112.870;2023-09-12T01:13:30;30.70;53.50
41953;DHT22;63613;28.200;112.870;2023-09-12T01:15:56;30.70;53.60
41953;DHT22;63613;28.200;112.870;2023-09-12T01:18:44;30.70;53.50
41953;DHT22;63613;28.200;112.870;2023-09-12T01:27:32;30.70;53.60
41953;DHT22;63613;28.200;112.870;2023-09-12T01:30:03;30.70;53.70
41953;DHT22;63613;28.200;112.870;2023-09-12T01:32:34;30.70;53.70
41953;DHT22;63613;28.200;112.870;2023-09-12T01:35:02;30.70;53.80
41953;DHT22;63613;28.200;112.870;2023-09-12T01:37:30;30.70;53.60
41953;DHT22;63613;28.200;112.870;2023-09-12T01:39:58;30.70;53.70
41953;DHT22;63613;28.200;112.870;2023-09-12T01:42:29;30.70;53.70
41953;DHT22;63613;28.200;112.870;2023-09-12T01:44:57;30.70;53.70
41953;DHT22;63613;28.200;112.870;2023-09-12T01:47:25;30.70;53.70
41953;DHT22;63613;28.200;112.870;2023-09-12T01:49:55;30.70;53.70
41953;DHT22;63613;28.200;112.870;2023-09-12T01:52:26;30.70;53.70
41953;DHT22;63613;28.200;112.870;2023-09-12T01:54:55;30.70;53.70
41953;DHT22;63613;28.200;112.870;2023-09-12T01:57:22;30.70;53.70
41953;DHT22;63613;28.200;112.870;2023-09-12T01:59:49;30.70;53.40
41953;DHT22;63613;28.200;112.870;2023-09-12T02:02:17;30.70;53.20
41953;DHT22;63613;28.200;112.870;2023-09-12T02:07:34;30.70;52.90
41953;DHT22;63613;28.200;112.870;2023-09-12T02:10:02;30.70;52.80
41953;DHT22;63613;28.200;112.870;2023-09-12T02:12:31;30.70;52.50
41953;DHT22;63613;28.200;112.870;2023-09-12T02:14:58;30.60;52.40
41953;DHT22;63613;28.200;112.870;2023-09-12T02:17:25;30.70;52.10
41953;DHT22;63613;28.200;112.870;2023-09-12T02:19:52;30.70;51.90
41953;DHT22;63613;28.200;112.870;2023-09-12T02:22:18;30.70;51.60
41953;DHT22;63613;28.200;112.870;2023-09-12T02:24:45;30.60;51.40
41953;DHT22;63613;28.200;112.870;2023-09-12T02:27:12;30.60;51.20
41953;DHT22;63613;28.200;112.870;2023-09-12T02:29:40;30.60;50.90
41953;DHT22;63613;28.200;112.870;2023-09-12T02:32:08;30.60;50.80
41953;DHT22;63613;28.200;112.870;2023-09-12T02:34:35;30.60;50.50
41953;DHT22;63613;28.200;112.870;2023-09-12T02:37:02;30.60;50.20
41953;DHT22;63613;28.200;112.870;2023-09-12T02:39:29;30.60;49.90
41953;DHT22;63613;28.200;112.870;2023-09-12T02:41:57;30.60;49.60
41953;DHT22;63613;28.200;112.870;2023-09-12T02:44:24;30.60;49.10
41953;DHT22;63613;28.200;112.870;2023-09-12T02:46:51;30.60;48.80
41953;DHT22;63613;28.200;112.870;2023-09-12T02:49:17;30.60;48.50
41953;DHT22;63613;28.200;112.870;2023-09-12T02:51:45;30.60;48.40
41953;DHT22;63613;28.200;112.870;2023-09-12T02:54:12;30.60;48.10
41953;DHT22;63613;28.200;112.870;2023-09-12T02:56:39;30.50;47.90
41953;DHT22;63613;28.200;112.870;2023-09-12T02:59:05;30.50;47.50
41953;DHT22;63613;28.200;112.870;2023-09-12T03:01:35;30.50;47.40
41953;DHT22;63613;28.200;112.870;2023-09-12T03:04:03;30.60;47.20
41953;DHT22;63613;28.200;112.870;2023-09-12T03:06:30;30.60;47.00
41953;DHT22;63613;28.200;112.870;2023-09-12T03:08:57;30.50;46.90
41953;DHT22;63613;28.200;112.870;2023-09-12T03:11:44;30.50;46.60
41953;DHT22;63613;28.200;112.870;2023-09-12T03:14:11;30.60;46.40
41953;DHT22;63613;28.200;112.870;2023-09-12T03:16:37;30.50;46.20
41953;DHT22;63613;28.200;112.870;2023-09-12T03:19:05;30.50;46.00
41953;DHT22;63613;28.200;112.870;2023-09-12T03:21:32;30.50;45.90
41953;DHT22;63613;28.200;112.870;2023-09-12T03:23:59;30.60;45.70
41953;DHT22;63613;28.200;112.870;2023-09-12T03:26:28;30.50;45.60
41953;DHT22;63613;28.200;112.870;2023-09-12T03:28:54;30.50;45.40
41953;DHT22;63613;28.200;112.870;2023-09-12T03:31:21;30.50;45.40
41953;DHT22;63613;28.200;112.870;2023-09-12T03:33:48;30.50;45.00
41953;DHT22;63613;28.200;112.870;2023-09-12T03:36:16;30.50;44.90
41953;DHT22;63613;28.200;112.870;2023-09-12T03:38:44;30.50;44.70
41953;DHT22;63613;28.200;112.870;2023-09-12T03:41:10;30.50;44.50
41953;DHT22;63613;28.200;112.870;2023-09-12T03:43:37;30.50;44.40
41953;DHT22;63613;28.200;112.870;2023-09-12T03:46:04;30.50;44.40
41953;DHT22;63613;28.200;112.870;2023-09-12T03:48:31;30.50;44.40
41953;DHT22;63613;28.200;112.870;2023-09-12T03:50:58;30.50;44.30
41953;DHT22;63613;28.200;112.870;2023-09-12T03:53:25;30.50;44.20
41953;DHT22;63613;28.200;112.870;2023-09-12T03:56:14;30.50;44.10
41953;DHT22;63613;28.200;112.870;2023-09-12T03:58:41;30.50;44.00
41953;DHT22;63613;28.200;112.870;2023-09-12T04:01:08;30.50;43.90
41953;DHT22;63613;28.200;112.870;2023-09-12T04:03:35;30.50;43.80
41953;DHT22;63613;28.200;112.870;2023-09-12T04:06:02;30.50;43.70
41953;DHT22;63613;28.200;112.870;2023-09-12T04:08:29;30.50;43.70
41953;DHT22;63613;28.200;112.870;2023-09-12T04:10:55;30.50;43.50
41953;DHT22;63613;28.200;112.870;2023-09-12T04:13:22;30.50;43.50
41953;DHT22;63613;28.200;112.870;2023-09-12T04:15:49;30.50;43.40
41953;DHT22;63613;28.200;112.870;2023-09-12T04:18:16;30.50;43.40
41953;DHT22;63613;28.200;112.870;2023-09-12T04:20:43;30.50;43.40
41953;DHT22;63613;28.200;112.870;2023-09-12T04:23:10;30.50;43.40
41953;DHT22;63613;28.200;112.870;2023-09-12T04:25:37;30.50;43.30
41953;DHT22;63613;28.200;112.870;2023-09-12T04:28:04;30.50;43.30
41953;DHT22;63613;28.200;112.870;2023-09-12T04:30:33;30.50;42.50
41953;DHT22;63613;28.200;112.870;2023-09-12T04:33:01;30.40;41.80
41953;DHT22;63613;28.200;112.870;2023-09-12T04:35:28;30.30;42.00
41953;DHT22;63613;28.200;112.870;2023-09-12T04:37:55;30.30;42.10
41953;DHT22;63613;28.200;112.870;2023-09-12T04:40:25;30.40;42.20
41953;DHT22;63613;28.200;112.870;2023-09-12T04:42:51;30.50;42.40
41953;DHT22;63613;28.200;112.870;2023-09-12T04:45:18;30.50;42.60
41953;DHT22;63613;28.200;112.870;2023-09-12T04:47:45;30.50;42.90
41953;DHT22;63613;28.200;112.870;2023-09-12T04:50:12;30.50;42.90
41953;DHT22;63613;28.200;112.870;2023-09-12T04:52:39;30.50;42.90
41953;DHT22;63613;28.200;112.870;2023-09-12T04:55:07;30.50;42.90
41953;DHT22;63613;28.200;112.870;2023-09-12T04:57:36;30.60;43.00
41953;DHT22;63613;28.200;112.870;2023-09-12T05:00:03;30.60;42.90
41953;DHT22;63613;28.200;112.870;2023-09-12T05:02:31;30.50;42.90
41953;DHT22;63613;28.200;112.870;2023-09-12T05:04:58;30.60;42.90
41953;DHT22;63613;28.200;112.870;2023-09-12T05:07:25;30.60;42.90
41953;DHT22;63613;28.200;112.870;2023-09-12T05:09:57;30.50;41.80
41953;DHT22;63613;28.200;112.870;2023-09-12T05:12:24;30.50;41.50
41953;DHT22;63613;28.200;112.870;2023-09-12T05:14:52;30.40;41.20
41953;DHT22;63613;28.200;112.870;2023-09-12T05:17:19;30.40;40.90
41953;DHT22;63613;28.200;112.870;2023-09-12T05:19:46;30.50;40.50
41953;DHT22;63613;28.200;112.870;2023-09-12T05:22:13;30.40;40.60
41953;DHT22;63613;28.200;112.870;2023-09-12T05:25:01;30.40;40.40
41953;DHT22;63613;28.200;112.870;2023-09-12T05:27:28;30.50;40.10
41953;DHT22;63613;28.200;112.870;2023-09-12T05:29:55;30.40;40.40
41953;DHT22;63613;28.200;112.870;2023-09-12T05:32:36;30.40;40.60
41953;DHT22;63613;28.200;112.870;2023-09-12T05:35:06;30.50;40.50
41953;DHT22;63613;28.200;112.870;2023-09-12T05:37:33;30.40;40.50
41953;DHT22;63613;28.200;112.870;2023-09-12T05:40:00;30.50;40.70
41953;DHT22;63613;28.200;112.870;2023-09-12T05:42:32;30.50;40.90
41953;DHT22;63613;28.200;112.870;2023-09-12T05:49:19;30.40;50.10
41953;DHT22;63613;28.200;112.870;2023-09-12T05:51:46;30.10;54.60
41953;DHT22;63613;28.200;112.870;2023-09-12T05:54:16;30.00;58.20
41953;DHT22;63613;28.200;112.870;2023-09-12T05:56:46;30.00;59.60
41953;DHT22;63613;28.200;112.870;2023-09-12T05:59:14;30.00;60.60
41953;DHT22;63613;28.200;112.870;2023-09-12T06:01:41;30.00;61.60
41953;DHT22;63613;28.200;112.870;2023-09-12T06:04:08;29.90;62.40
41953;DHT22;63613;28.200;112.870;2023-09-12T06:06:38;29.90;63.30
41953;DHT22;63613;28.200;112.870;2023-09-12T06:09:05;29.90;62.10
41953;DHT22;63613;28.200;112.870;2023-09-12T06:11:32;29.90;60.20
41953;DHT22;63613;28.200;112.870;2023-09-12T06:13:58;29.90;60.70
41953;DHT22;63613;28.200;112.870;2023-09-12T06:16:25;29.90;62.40
41953;DHT22;63613;28.200;112.870;2023-09-12T06:18:55;29.90;63.70
41953;DHT22;63613;28.200;112.870;2023-09-12T06:21:22;29.80;64.80
41953;DHT22;63613;28.200;112.870;2023-09-12T06:24:10;29.70;64.30
41953;DHT22;63613;28.200;112.870;2023-09-12T06:26:38;29.70;63.90
41953;DHT22;63613;28.200;112.870;2023-09-12T06:29:05;29.70;62.30
41953;DHT22;63613;28.200;112.870;2023-09-12T06:31:32;29.70;63.20
41953;DHT22;63613;28.200;112.870;2023-09-12T06:33:59;29.70;63.40
41953;DHT22;63613;28.200;112.870;2023-09-12T06:36:46;29.70;63.90
41953;DHT22;63613;28.200;112.870;2023-09-12T06:39:13;29.70;62.70
41953;DHT22;63613;28.200;112.870;2023-09-12T06:42:00;29.70;62.60
41953;DHT22;63613;28.200;112.870;2023-09-12T06:44:27;29.70;64.20
41953;DHT22;63613;28.200;112.870;2023-09-12T06:46:56;29.70;62.70
41953;DHT22;63613;28.200;112.870;2023-09-12T06:49:23;29.60;63.10
41953;DHT22;63613;28.200;112.870;2023-09-12T06:52:09;29.60;63.60
41953;DHT22;63613;28.200;112.870;2023-09-12T06:54:36;29.60;63.50
41953;DHT22;63613;28.200;112.870;2023-09-12T06:57:04;29.50;64.20
41953;DHT22;63613;28.200;112.870;2023-09-12T06:59:34;29.50;64.30
41953;DHT22;63613;28.200;112.870;2023-09-12T07:02:01;29.50;64.50
41953;DHT22;63613;28.200;112.870;2023-09-12T07:04:30;29.50;64.30
41953;DHT22;63613;28.200;112.870;2023-09-12T07:06:57;29.40;65.60
41953;DHT22;63613;28.200;112.870;2023-09-12T07:09:28;29.40;62.80
41953;DHT22;63613;28.200;112.870;2023-09-12T07:11:55;29.40;63.10
41953;DHT22;63613;28.200;112.870;2023-09-12T07:14:22;29.50;62.70
41953;DHT22;63613;28.200;112.870;2023-09-12T07:16:50;29.50;64.00
41953;DHT22;63613;28.200;112.870;2023-09-12T07:19:17;29.40;65.40
41953;DHT22;63613;28.200;112.870;2023-09-12T07:21:45;29.40;65.20
41953;DHT22;63613;28.200;112.870;2023-09-12T07:24:12;29.40;64.40
41953;DHT22;63613;28.200;112.870;2023-09-12T07:26:39;29.30;64.30
41953;DHT22;63613;28.200;112.870;2023-09-12T07:29:07;29.40;63.70
41953;DHT22;63613;28.200;112.870;2023-09-12T07:31:34;29.40;63.20
41953;DHT22;63613;28.200;112.870;2023-09-12T07:34:01;29.40;62.70
41953;DHT22;63613;28.200;112.870;2023-09-12T07:36:28;29.40;63.50
41953;DHT22;63613;28.200;112.870;2023-09-12T07:39:00;29.40;63.20
41953;DHT22;63613;28.200;112.870;2023-09-12T07:41:26;29.30;64.90
41953;DHT22;63613;28.200;112.870;2023-09-12T07:43:53;29.30;65.10
41953;DHT22;63613;28.200;112.870;2023-09-12T07:46:42;29.20;64.90
41953;DHT22;63613;28.200;112.870;2023-09-12T07:49:09;29.20;65.30
41953;DHT22;63613;28.200;112.870;2023-09-12T07:51:36;29.20;65.20
41953;DHT22;63613;28.200;112.870;2023-09-12T07:54:24;29.20;65.10
41953;DHT22;63613;28.200;112.870;2023-09-12T07:56:51;29.20;65.00
41953;DHT22;63613;28.200;112.870;2023-09-12T07:59:18;29.20;64.50
41953;DHT22;63613;28.200;112.870;2023-09-12T08:01:44;29.20;65.50
41953;DHT22;63613;28.200;112.870;2023-09-12T08:04:12;29.20;65.60
41953;DHT22;63613;28.200;112.870;2023-09-12T08:06:41;29.20;63.60
41953;DHT22;63613;28.200;112.870;2023-09-12T08:09:09;29.20;62.70
41953;DHT22;63613;28.200;112.870;2023-09-12T08:11:36;29.20;63.20
41953;DHT22;63613;28.200;112.870;2023-09-12T08:14:03;29.20;63.70
41953;DHT22;63613;28.200;112.870;2023-09-12T08:16:30;29.20;64.50
41953;DHT22;63613;28.200;112.870;2023-09-12T08:18:58;29.10;64.80
41953;DHT22;63613;28.200;112.870;2023-09-12T08:21:24;29.10;65.60
41953;DHT22;63613;28.200;112.870;2023-09-12T08:23:52;29.10;63.90
41953;DHT22;63613;28.200;112.870;2023-09-12T08:26:21;29.20;63.00
41953;DHT22;63613;28.200;112.870;2023-09-12T08:28:47;29.20;64.10
41953;DHT22;63613;28.200;112.870;2023-09-12T08:31:14;29.20;63.60
41953;DHT22;63613;28.200;112.870;2023-09-12T08:33:43;29.20;64.20
41953;DHT22;63613;28.200;112.870;2023-09-12T08:36:13;29.00;63.70
41953;DHT22;63613;28.200;112.870;2023-09-12T08:39:02;29.10;63.00
41953;DHT22;63613;28.200;112.870;2023-09-12T08:41:29;29.10;63.70
41953;DHT22;63613;28.200;112.870;2023-09-12T08:43:56;29.10;62.70
41953;DHT22;63613;28.200;112.870;2023-09-12T08:46:23;29.00;63.70
41953;DHT22;63613;28.200;112.870;2023-09-12T08:49:10;29.00;63.50
41953;DHT22;63613;28.200;112.870;2023-09-12T08:51:40;29.00;63.30
41953;DHT22;63613;28.200;112.870;2023-09-12T08:54:10;29.00;63.50
41953;DHT22;63613;28.200;112.870;2023-09-12T08:56:40;28.90;63.70
41953;DHT22;63613;28.200;112.870;2023-09-12T08:59:10;29.00;64.10
41953;DHT22;63613;28.200;112.870;2023-09-12T09:01:37;28.90;62.90
41953;DHT22;63613;28.200;112.870;2023-09-12T09:04:05;28.90;63.60
41953;DHT22;63613;28.200;112.870;2023-09-12T09:06:36;28.90;63.30
41953;DHT22;63613;28.200;112.870;2023-09-12T09:09:07;28.90;62.10
41953;DHT22;63613;28.200;112.870;2023-09-12T09:11:34;28.90;59.30
41953;DHT22;63613;28.200;112.870;2023-09-12T09:14:02;28.90;59.50
41953;DHT22;63613;28.200;112.870;2023-09-12T09:16:29;28.90;58.70
41953;DHT22;63613;28.200;112.870;2023-09-12T09:21:32;28.90;59.30
41953;DHT22;63613;28.200;112.870;2023-09-12T09:24:01;28.90;58.80
41953;DHT22;63613;28.200;112.870;2023-09-12T09:26:46;28.90;58.70
41953;DHT22;63613;28.200;112.870;2023-09-12T09:29:23;28.90;59.10
41953;DHT22;63613;28.200;112.870;2023-09-12T09:32:02;28.80;59.00
41953;DHT22;63613;28.200;112.870;2023-09-12T09:34:31;28.80;59.50
41953;DHT22;63613;28.200;112.870;2023-09-12T09:36:58;28.80;59.20
41953;DHT22;63613;28.200;112.870;2023-09-12T09:39:29;28.80;58.50
41953;DHT22;63613;28.200;112.870;2023-09-12T09:41:57;28.90;58.20
41953;DHT22;63613;28.200;112.870;2023-09-12T09:44:25;28.80;58.40
41953;DHT22;63613;28.200;112.870;2023-09-12T09:46:59;28.80;56.60
41953;DHT22;63613;28.200;112.870;2023-09-12T09:49:31;28.80;56.40
41953;DHT22;63613;28.200;112.870;2023-09-12T09:52:03;28.90;56.30
41953;DHT22;63613;28.200;112.870;2023-09-12T09:54:50;28.90;55.60
41953;DHT22;63613;28.200;112.870;2023-09-12T09:57:17;28.80;55.70
41953;DHT22;63613;28.200;112.870;2023-09-12T09:59:49;28.80;55.60
41953;DHT22;63613;28.200;112.870;2023-09-12T10:02:21;28.80;54.90
41953;DHT22;63613;28.200;112.870;2023-09-12T10:04:53;28.80;54.80
41953;DHT22;63613;28.200;112.870;2023-09-12T10:07:20;28.80;54.90
41953;DHT22;63613;28.200;112.870;2023-09-12T10:09:48;28.80;55.20
41953;DHT22;63613;28.200;112.870;2023-09-12T10:12:15;28.80;55.50
41953;DHT22;63613;28.200;112.870;2023-09-12T10:14:45;28.80;54.80
41953;DHT22;63613;28.200;112.870;2023-09-12T10:17:13;28.80;54.40
41953;DHT22;63613;28.200;112.870;2023-09-12T10:19:54;28.80;54.40
41953;DHT22;63613;28.200;112.870;2023-09-12T10:22:25;28.80;54.90
41953;DHT22;63613;28.200;112.870;2023-09-12T10:24:56;28.80;54.40
41953;DHT22;63613;28.200;112.870;2023-09-12T10:27:24;28.80;54.20
41953;DHT22;63613;28.200;112.870;2023-09-12T10:29:52;28.80;54.20
41953;DHT22;63613;28.200;112.870;2023-09-12T10:32:19;28.80;54.40
41953;DHT22;63613;28.200;112.870;2023-09-12T10:34:49;28.80;53.60
41953;DHT22;63613;28.200;112.870;2023-09-12T10:37:16;28.80;54.50
41953;DHT22;63613;28.200;112.870;2023-09-12T10:39:46;28.80;53.90
41953;DHT22;63613;28.200;112.870;2023-09-12T10:42:13;28.90;53.00
41953;DHT22;63613;28.200;112.870;2023-09-12T10:44:41;28.80;53.10
41953;DHT22;63613;28.200;112.870;2023-09-12T10:47:08;28.80;52.90
41953;DHT22;63613;28.200;112.870;2023-09-12T10:49:35;28.80;53.00
41953;DHT22;63613;28.200;112.870;2023-09-12T10:52:06;28.80;52.50
41953;DHT22;63613;28.200;112.870;2023-09-12T10:54:42;28.80;53.30
41953;DHT22;63613;28.200;112.870;2023-09-12T10:57:15;28.70;53.50
41953;DHT22;63613;28.200;112.870;2023-09-12T11:02:50;28.80;53.10
41953;DHT22;63613;28.200;112.870;2023-09-12T11:08:00;28.80;52.70
41953;DHT22;63613;28.200;112.870;2023-09-12T11:10:29;28.80;52.80
41953;DHT22;63613;28.200;112.870;2023-09-12T11:13:01;28.80;52.60
41953;DHT22;63613;28.200;112.870;2023-09-12T11:15:28;28.80;51.90
41953;DHT22;63613;28.200;112.870;2023-09-12T11:18:08;28.80;52.00
41953;DHT22;63613;28.200;112.870;2023-09-12T11:20:59;28.80;51.10
41953;DHT22;63613;28.200;112.870;2023-09-12T11:23:27;28.80;50.70
41953;DHT22;63613;28.200;112.870;2023-09-12T11:26:06;28.80;50.80
41953;DHT22;63613;28.200;112.870;2023-09-12T11:28:33;28.80;50.60
41953;DHT22;63613;28.200;112.870;2023-09-12T11:31:30;28.80;51.30
41953;DHT22;63613;28.200;112.870;2023-09-12T11:34:01;28.80;51.60
41953;DHT22;63613;28.200;112.870;2023-09-12T11:36:27;28.80;50.90
41953;DHT22;63613;28.200;112.870;2023-09-12T11:39:02;28.80;51.20
41953;DHT22;63613;28.200;112.870;2023-09-12T11:41:41;28.80;51.20
41953;DHT22;63613;28.200;112.870;2023-09-12T11:44:08;28.70;51.50
41953;DHT22;63613;28.200;112.870;2023-09-12T11:46:35;28.80;51.20
41953;DHT22;63613;28.200;112.870;2023-09-12T11:49:05;28.70;51.40
41953;DHT22;63613;28.200;112.870;2023-09-12T11:51:32;28.80;51.40
41953;DHT22;63613;28.200;112.870;2023-09-12T11:53:59;28.70;51.60
41953;DHT22;63613;28.200;112.870;2023-09-12T11:56:27;28.80;51.80
41953;DHT22;63613;28.200;112.870;2023-09-12T11:58:55;28.70;51.30
41953;DHT22;63613;28.200;112.870;2023-09-12T12:01:22;28.80;51.40
41953;DHT22;63613;28.200;112.870;2023-09-12T12:03:49;28.70;51.00
41953;DHT22;63613;28.200;112.870;2023-09-12T12:06:19;28.80;51.20
41953;DHT22;63613;28.200;112.870;2023-09-12T12:08:51;28.70;51.30
41953;DHT22;63613;28.200;112.870;2023-09-12T12:11:21;28.70;50.90
41953;DHT22;63613;28.200;112.870;2023-09-12T12:13:47;28.70;50.60
41953;DHT22;63613;28.200;112.870;2023-09-12T12:16:18;28.80;50.50
41953;DHT22;63613;28.200;112.870;2023-09-12T12:18:45;28.80;50.90
41953;DHT22;63613;28.200;112.870;2023-09-12T12:21:30;28.80;50.60
41953;DHT22;63613;28.200;112.870;2023-09-12T12:24:11;28.80;50.40
41953;DHT22;63613;28.200;112.870;2023-09-12T12:26:42;28.80;50.10
41953;DHT22;63613;28.200;112.870;2023-09-12T12:29:12;28.80;49.00
41953;DHT22;63613;28.200;112.870;2023-09-12T12:31:42;28.80;48.70
41953;DHT22;63613;28.200;112.870;2023-09-12T12:34:09;28.70;48.80
41953;DHT22;63613;28.200;112.870;2023-09-12T12:36:41;28.80;48.60
41953;DHT22;63613;28.200;112.870;2023-09-12T12:39:12;28.80;48.50
41953;DHT22;63613;28.200;112.870;2023-09-12T12:41:40;28.80;48.30
41953;DHT22;63613;28.200;112.870;2023-09-12T12:44:07;28.80;48.40
41953;DHT22;63613;28.200;112.870;2023-09-12T12:46:51;28.80;48.10
41953;DHT22;63613;28.200;112.870;2023-09-12T12:49:21;28.80;48.30
41953;DHT22;63613;28.200;112.870;2023-09-12T12:51:49;28.80;48.00
41953;DHT22;63613;28.200;112.870;2023-09-12T12:54:22;28.80;47.70
41953;DHT22;63613;28.200;112.870;2023-09-12T12:56:53;28.80;47.80
41953;DHT22;63613;28.200;112.870;2023-09-12T12:59:26;28.80;47.70
41953;DHT22;63613;28.200;112.870;2023-09-12T13:02:12;28.80;47.70
41953;DHT22;63613;28.200;112.870;2023-09-12T13:04:39;28.80;47.40
41953;DHT22;63613;28.200;112.870;2023-09-12T13:07:06;28.80;47.00
41953;DHT22;63613;28.200;112.870;2023-09-12T13:09:33;28.80;47.10
41953;DHT22;63613;28.200;112.870;2023-09-12T13:12:00;28.70;47.30
41953;DHT22;63613;28.200;112.870;2023-09-12T13:14:30;28.80;47.20
41953;DHT22;63613;28.200;112.870;2023-09-12T13:16:59;28.80;47.30
41953;DHT22;63613;28.200;112.870;2023-09-12T13:19:29;28.80;46.90
41953;DHT22;63613;28.200;112.870;2023-09-12T13:21:56;28.80;46.60
41953;DHT22;63613;28.200;112.870;2023-09-12T13:24:23;28.80;46.50
41953;DHT22;63613;28.200;112.870;2023-09-12T13:26:50;28.80;46.40
41953;DHT22;63613;28.200;112.870;2023-09-12T13:29:18;28.80;46.40
41953;DHT22;63613;28.200;112.870;2023-09-12T13:31:47;28.80;46.30
41953;DHT22;63613;28.200;112.870;2023-09-12T13:34:16;28.80;46.30
41953;DHT22;63613;28.200;112.870;2023-09-12T13:36:44;28.80;45.90
41953;DHT22;63613;28.200;112.870;2023-09-12T13:39:11;28.80;46.00
41953;DHT22;63613;28.200;112.870;2023-09-12T13:41:40;28.80;45.80
41953;DHT22;63613;28.200;112.870;2023-09-12T13:44:07;28.80;46.00
41953;DHT22;63613;28.200;112.870;2023-09-12T13:46:37;28.70;46.00
41953;DHT22;63613;28.200;112.870;2023-09-12T13:49:10;28.70;45.70
41953;DHT22;63613;28.200;112.870;2023-09-12T13:51:37;28.70;45.60
41953;DHT22;63613;28.200;112.870;2023-09-12T13:54:24;28.80;45.50
41953;DHT22;63613;28.200;112.870;2023-09-12T13:56:55;28.80;45.50
41953;DHT22;63613;28.200;112.870;2023-09-12T13:59:22;28.80;45.50
41953;DHT22;63613;28.200;112.870;2023-09-12T14:02:14;28.80;45.40
41953;DHT22;63613;28.200;112.870;2023-09-12T14:04:45;28.70;45.30
41953;DHT22;63613;28.200;112.870;2023-09-12T14:07:12;28.70;45.20
41953;DHT22;63613;28.200;112.870;2023-09-12T14:09:44;28.70;45.20
41953;DHT22;63613;28.200;112.870;2023-09-12T14:12:12;28.70;45.10
41953;DHT22;63613;28.200;112.870;2023-09-12T14:14:45;28.70;45.10
41953;DHT22;63613;28.200;112.870;2023-09-12T14:17:16;28.70;45.10
41953;DHT22;63613;28.200;112.870;2023-09-12T14:19:52;28.70;45.00
41953;DHT22;63613;28.200;112.870;2023-09-12T14:22:19;28.70;44.90
41953;DHT22;63613;28.200;112.870;2023-09-12T14:24:47;28.80;44.80
41953;DHT22;63613;28.200;112.870;2023-09-12T14:27:14;28.70;45.20
41953;DHT22;63613;28.200;112.870;2023-09-12T14:29:43;28.80;45.10
41953;DHT22;63613;28.200;112.870;2023-09-12T14:32:15;28.70;45.20
41953;DHT22;63613;28.200;112.870;2023-09-12T14:34:42;28.80;45.30
41953;DHT22;63613;28.200;112.870;2023-09-12T14:37:19;28.80;45.10
41953;DHT22;63613;28.200;112.870;2023-09-12T14:40:00;28.70;45.10
41953;DHT22;63613;28.200;112.870;2023-09-12T14:42:29;28.70;44.90
41953;DHT22;63613;28.200;112.870;2023-09-12T14:44:57;28.70;44.80
41953;DHT22;63613;28.200;112.870;2023-09-12T14:47:26;28.70;44.80
41953;DHT22;63613;28.200;112.870;2023-09-12T14:49:56;28.70;44.70
41953;DHT22;63613;28.200;112.870;2023-09-12T14:52:29;28.70;44.70
41953;DHT22;63613;28.200;112.870;2023-09-12T14:54:59;28.70;44.60
41953;DHT22;63613;28.200;112.870;2023-09-12T14:57:31;28.80;44.40
41953;DHT22;63613;28.200;112.870;2023-09-12T14:59:59;28.70;44.50
41953;DHT22;63613;28.200;112.870;2023-09-12T15:02:26;28.70;44.40
41953;DHT22;63613;28.200;112.870;2023-09-12T15:05:14;28.70;44.30
41953;DHT22;63613;28.200;112.870;2023-09-12T15:07:43;28.70;44.40
41953;DHT22;63613;28.200;112.870;2023-09-12T15:10:11;28.70;44.50
41953;DHT22;63613;28.200;112.870;2023-09-12T15:12:43;28.70;44.50
41953;DHT22;63613;28.200;112.870;2023-09-12T15:15:13;28.70;44.60
41953;DHT22;63613;28.200;112.870;2023-09-12T15:17:39;28.70;44.80
41953;DHT22;63613;28.200;112.870;2023-09-12T15:20:11;28.70;44.90
41953;DHT22;63613;28.200;112.870;2023-09-12T15:22:38;28.70;44.90
41953;DHT22;63613;28.200;112.870;2023-09-12T15:25:06;28.70;44.90
41953;DHT22;63613;28.200;112.870;2023-09-12T15:27:33;28.70;44.90
41953;DHT22;63613;28.200;112.870;2023-09-12T15:30:19;28.70;44.90
41953;DHT22;63613;28.200;112.870;2023-09-12T15:32:46;28.70;44.90
41953;DHT22;63613;28.200;112.870;2023-09-12T15:35:15;28.70;45.10
41953;DHT22;63613;28.200;112.870;2023-09-12T15:37:42;28.70;45.00
41953;DHT22;63613;28.200;112.870;2023-09-12T15:40:10;28.70;44.80